createdAt,value
2023-01-25T00:00:06.434Z,8.40
2023-01-25T00:02:33.906Z,8.40
2023-01-25T00:05:00.986Z,8.30
2023-01-25T00:07:28.051Z,8.30
2023-01-25T00:09:55.122Z,8.30
2023-01-25T00:12:22.113Z,8.30
2023-01-25T00:14:49.107Z,8.30
2023-01-25T00:17:16.090Z,8.30
2023-01-25T00:19:43.224Z,8.30
2023-01-25T00:22:10.195Z,8.20
2023-01-25T00:24:37.212Z,8.20
2023-01-25T00:27:04.228Z,8.20
2023-01-25T00:29:32.012Z,8.20
2023-01-25T00:32:02.181Z,8.20
2023-01-25T00:34:29.883Z,8.20
2023-01-25T00:37:10.827Z,8.20
2023-01-25T00:39:40.386Z,8.20
2023-01-25T00:42:11.504Z,8.20
2023-01-25T00:44:39.456Z,8.20
2023-01-25T00:47:10.757Z,8.20
2023-01-25T00:49:39.382Z,8.20
2023-01-25T00:52:07.196Z,8.20
2023-01-25T00:54:34.126Z,8.20
2023-01-25T00:57:01.178Z,8.20
2023-01-25T00:59:28.351Z,8.20
2023-01-25T01:01:55.477Z,8.30
2023-01-25T01:04:26.254Z,8.30
2023-01-25T01:06:54.795Z,8.30
2023-01-25T01:09:23.695Z,8.30
2023-01-25T01:11:53.636Z,8.30
2023-01-25T01:14:22.043Z,8.20
2023-01-25T01:16:50.924Z,8.20
2023-01-25T01:19:19.369Z,8.20
2023-01-25T01:21:46.598Z,8.20
2023-01-25T01:24:13.687Z,8.20
2023-01-25T01:26:40.681Z,8.20
2023-01-25T01:29:07.673Z,8.20
2023-01-25T01:31:36.371Z,8.10
2023-01-25T01:34:15.214Z,8.10
2023-01-25T01:36:42.436Z,8.10
2023-01-25T01:39:09.749Z,8.10
2023-01-25T01:41:37.535Z,8.10
2023-01-25T01:44:06.243Z,8.10
2023-01-25T01:46:37.336Z,8.10
2023-01-25T01:49:41.668Z,8.10
2023-01-25T01:52:20.080Z,8.10
2023-01-25T01:54:58.544Z,8.10
2023-01-25T01:57:34.853Z,8.10
2023-01-25T02:00:11.880Z,8.10
2023-01-25T02:02:43.031Z,8.10
2023-01-25T02:05:20.119Z,8.00
2023-01-25T02:07:51.017Z,8.00
2023-01-25T02:10:21.906Z,8.00
2023-01-25T02:12:53.141Z,8.00
2023-01-25T02:15:20.221Z,8.00
2023-01-25T02:17:48.984Z,8.00
2023-01-25T02:20:35.454Z,8.00
2023-01-25T02:23:25.393Z,8.00
2023-01-25T02:25:52.520Z,8.00
2023-01-25T02:28:30.599Z,8.00
2023-01-25T02:30:57.705Z,8.00
2023-01-25T02:33:26.407Z,7.90
2023-01-25T02:36:08.483Z,7.90
2023-01-25T02:38:46.856Z,7.90
2023-01-25T02:41:23.716Z,7.80
2023-01-25T02:43:50.779Z,7.80
2023-01-25T02:46:29.767Z,7.80
2023-01-25T02:48:58.154Z,7.70
2023-01-25T02:51:27.716Z,7.70
2023-01-25T02:53:55.813Z,7.70
2023-01-25T02:56:23.703Z,7.70
2023-01-25T02:58:51.037Z,7.60
2023-01-25T03:01:20.466Z,7.60
2023-01-25T03:03:47.584Z,7.60
2023-01-25T03:06:14.658Z,7.50
2023-01-25T03:08:43.452Z,7.50
2023-01-25T03:11:10.519Z,7.40
2023-01-25T03:13:38.205Z,7.40
2023-01-25T03:16:11.721Z,7.40
2023-01-25T03:18:41.259Z,7.30
2023-01-25T03:21:26.898Z,7.30
2023-01-25T03:24:01.951Z,7.10
2023-01-25T03:26:54.970Z,7.00
2023-01-25T03:29:26.932Z,6.90
2023-01-25T03:31:54.040Z,6.80
2023-01-25T03:34:21.204Z,6.70
2023-01-25T03:36:48.267Z,6.60
2023-01-25T03:39:15.365Z,6.60
2023-01-25T03:41:43.782Z,6.50
2023-01-25T03:44:13.343Z,6.50
2023-01-25T03:46:42.463Z,6.50
2023-01-25T03:49:09.927Z,6.40
2023-01-25T03:51:37.865Z,6.40
2023-01-25T03:54:05.811Z,6.40
2023-01-25T03:56:35.221Z,6.30
2023-01-25T03:59:14.048Z,6.40
2023-01-25T04:01:41.157Z,6.30
2023-01-25T04:04:08.136Z,6.40
2023-01-25T04:06:36.049Z,6.40
2023-01-25T04:09:03.659Z,6.40
2023-01-25T04:11:37.527Z,6.40
2023-01-25T04:14:05.187Z,6.40
2023-01-25T04:16:40.516Z,6.40
2023-01-25T04:19:27.309Z,6.40
2023-01-25T04:21:57.982Z,6.40
2023-01-25T04:24:31.402Z,6.30
2023-01-25T04:26:58.843Z,6.30
2023-01-25T04:29:40.011Z,6.20
2023-01-25T04:32:10.117Z,6.20
2023-01-25T04:34:37.398Z,6.20
2023-01-25T04:37:05.042Z,6.20
2023-01-25T04:39:39.488Z,6.20
2023-01-25T04:42:07.881Z,6.20
2023-01-25T04:44:35.085Z,6.20
2023-01-25T04:47:03.670Z,6.20
2023-01-25T04:49:30.816Z,6.20
2023-01-25T04:51:57.902Z,6.20
2023-01-25T04:54:24.889Z,6.20
2023-01-25T04:56:51.916Z,6.20
2023-01-25T04:59:18.837Z,6.30
2023-01-25T05:01:46.432Z,6.40
2023-01-25T05:04:14.032Z,6.50
2023-01-25T05:06:44.618Z,6.50
2023-01-25T05:09:11.659Z,6.50
2023-01-25T05:11:39.694Z,6.50
2023-01-25T05:14:27.031Z,6.50
2023-01-25T05:16:54.185Z,6.50
2023-01-25T05:19:22.110Z,6.50
2023-01-25T05:22:15.026Z,6.60
2023-01-25T05:24:47.558Z,6.60
2023-01-25T05:27:19.962Z,6.60
2023-01-25T05:29:57.472Z,6.70
2023-01-25T05:32:33.718Z,6.70
2023-01-25T05:35:01.158Z,6.70
2023-01-25T05:37:28.560Z,6.80
2023-01-25T05:40:01.270Z,6.80
2023-01-25T05:42:29.651Z,6.80
2023-01-25T05:44:56.705Z,6.80
2023-01-25T05:47:24.521Z,6.80
2023-01-25T05:49:51.580Z,6.90
2023-01-25T05:52:38.772Z,6.90
2023-01-25T05:55:06.131Z,6.90
2023-01-25T05:57:33.247Z,6.90
2023-01-25T06:00:01.588Z,7.00
2023-01-25T06:02:29.054Z,7.00
2023-01-25T06:04:56.105Z,7.10
2023-01-25T06:07:24.714Z,7.10
2023-01-25T06:09:52.153Z,7.20
2023-01-25T06:12:22.322Z,7.20
2023-01-25T06:14:49.788Z,7.20
2023-01-25T06:17:16.764Z,7.30
2023-01-25T06:19:52.709Z,7.30
2023-01-25T06:22:24.437Z,7.30
2023-01-25T06:24:51.323Z,7.30
2023-01-25T06:27:18.223Z,7.30
2023-01-25T06:29:45.136Z,7.20
2023-01-25T06:32:12.078Z,7.20
2023-01-25T06:34:39.161Z,7.20
2023-01-25T06:37:09.653Z,7.20
2023-01-25T06:39:36.540Z,7.30
2023-01-25T06:42:03.571Z,7.30
2023-01-25T06:44:30.531Z,7.30
2023-01-25T06:46:58.049Z,7.30
2023-01-25T06:49:25.106Z,7.30
2023-01-25T06:51:51.982Z,7.40
2023-01-25T06:54:19.042Z,7.30
2023-01-25T06:56:46.040Z,7.40
2023-01-25T06:59:12.971Z,7.40
2023-01-25T07:01:40.003Z,7.40
2023-01-25T07:04:09.290Z,7.40
2023-01-25T07:06:36.262Z,7.50
2023-01-25T07:09:09.438Z,7.50
2023-01-25T07:11:36.989Z,7.60
2023-01-25T07:14:04.855Z,7.60
2023-01-25T07:16:37.117Z,7.70
2023-01-25T07:19:10.423Z,7.80
2023-01-25T07:21:37.456Z,7.90
2023-01-25T07:24:05.691Z,7.90
2023-01-25T07:26:33.221Z,8.00
2023-01-25T07:29:00.550Z,8.10
2023-01-25T07:31:28.515Z,8.20
2023-01-25T07:33:57.254Z,8.40
2023-01-25T07:36:25.233Z,8.60
2023-01-25T07:38:56.679Z,8.80
2023-01-25T07:41:25.108Z,9.20
2023-01-25T07:43:53.535Z,9.40
2023-01-25T07:46:43.910Z,9.50
2023-01-25T07:49:10.997Z,9.30
2023-01-25T07:51:38.021Z,9.10
2023-01-25T07:54:05.604Z,9.00
2023-01-25T07:56:40.828Z,9.00
2023-01-25T07:59:08.391Z,8.90
2023-01-25T08:01:37.089Z,8.90
2023-01-25T08:04:05.518Z,8.80
2023-01-25T08:06:41.325Z,8.80
2023-01-25T08:09:14.220Z,8.70
2023-01-25T08:11:41.887Z,8.70
2023-01-25T08:14:09.185Z,8.60
2023-01-25T08:16:36.288Z,8.60
2023-01-25T08:19:04.266Z,8.60
2023-01-25T08:21:33.654Z,8.60
2023-01-25T08:24:02.188Z,8.70
2023-01-25T08:26:29.543Z,8.70
2023-01-25T08:28:57.343Z,8.80
2023-01-25T08:31:30.398Z,8.90
2023-01-25T08:33:58.233Z,9.00
2023-01-25T08:36:27.889Z,9.00
2023-01-25T08:39:00.660Z,9.00
2023-01-25T08:41:29.501Z,9.10
2023-01-25T08:43:57.125Z,9.10
2023-01-25T08:46:27.265Z,9.10
2023-01-25T08:48:56.609Z,9.20
2023-01-25T08:51:24.850Z,9.30
2023-01-25T08:53:51.930Z,9.40
2023-01-25T08:56:19.202Z,9.50
2023-01-25T08:58:48.049Z,9.50
2023-01-25T09:01:17.880Z,9.50
2023-01-25T09:03:47.119Z,9.50
2023-01-25T09:06:14.656Z,9.60
2023-01-25T09:08:41.928Z,9.60
2023-01-25T09:11:11.808Z,9.60
2023-01-25T09:13:38.974Z,9.50
2023-01-25T09:16:09.927Z,9.60
2023-01-25T09:18:38.505Z,9.50
2023-01-25T09:21:10.463Z,9.40
2023-01-25T09:23:50.515Z,9.30
2023-01-25T09:26:19.794Z,9.20
2023-01-25T09:28:49.085Z,9.10
2023-01-25T09:31:22.240Z,9.10
2023-01-25T09:34:10.017Z,9.00
2023-01-25T09:36:37.694Z,9.10
2023-01-25T09:39:05.245Z,9.00
2023-01-25T09:41:44.093Z,9.00
2023-01-25T09:44:58.484Z,9.00
2023-01-25T09:47:44.251Z,9.00
2023-01-25T09:50:22.393Z,8.90
2023-01-25T09:53:07.550Z,8.90
2023-01-25T09:55:35.013Z,9.00
2023-01-25T09:58:03.056Z,9.10
2023-01-25T10:00:55.493Z,9.20
2023-01-25T10:03:41.958Z,9.40
2023-01-25T10:06:13.314Z,9.60
2023-01-25T10:08:57.345Z,9.80
2023-01-25T10:11:29.126Z,10.10
2023-01-25T10:13:57.598Z,10.50
2023-01-25T10:16:39.100Z,10.70
2023-01-25T10:19:14.720Z,10.90
2023-01-25T10:21:48.848Z,11.10
2023-01-25T10:24:36.658Z,11.20
2023-01-25T10:27:28.533Z,11.30
2023-01-25T10:29:59.920Z,11.20
2023-01-25T10:32:32.508Z,11.30
2023-01-25T10:35:38.961Z,11.40
2023-01-25T10:38:30.908Z,11.40
2023-01-25T10:41:02.388Z,11.40
2023-01-25T10:43:29.765Z,11.40
2023-01-25T10:45:56.697Z,11.50
2023-01-25T10:48:36.551Z,11.60
2023-01-25T10:51:03.715Z,11.80
2023-01-25T10:53:32.523Z,12.00
2023-01-25T10:56:11.622Z,12.00
2023-01-25T10:58:46.779Z,12.10
2023-01-25T11:01:26.858Z,12.60
2023-01-25T11:03:54.022Z,13.50
2023-01-25T11:06:47.785Z,14.00
2023-01-25T11:09:30.340Z,13.90
2023-01-25T11:12:19.891Z,13.30
2023-01-25T11:14:50.500Z,12.70
2023-01-25T11:17:35.356Z,12.20
2023-01-25T11:20:28.779Z,12.00
2023-01-25T11:22:57.698Z,12.10
2023-01-25T11:25:24.824Z,12.10
2023-01-25T11:27:51.966Z,12.20
2023-01-25T11:30:19.336Z,12.00
2023-01-25T11:32:46.687Z,11.90
2023-01-25T11:35:16.257Z,11.90
2023-01-25T11:38:01.136Z,11.90
2023-01-25T11:40:44.146Z,11.90
2023-01-25T11:43:43.746Z,11.70
2023-01-25T11:46:13.439Z,11.70
2023-01-25T11:49:04.244Z,11.80
2023-01-25T11:51:40.112Z,12.70
2023-01-25T11:54:45.805Z,12.70
2023-01-25T11:57:33.907Z,12.30
2023-01-25T12:00:21.989Z,12.00
2023-01-25T12:03:09.454Z,11.90
2023-01-25T12:05:50.179Z,11.70
2023-01-25T12:08:33.099Z,11.70
2023-01-25T12:11:12.359Z,11.70
2023-01-25T12:13:51.689Z,11.90
2023-01-25T12:16:37.136Z,12.10
2023-01-25T12:19:25.943Z,13.20
2023-01-25T12:21:53.783Z,14.10
2023-01-25T12:24:32.592Z,14.70
2023-01-25T12:27:30.352Z,16.50
2023-01-25T12:30:04.566Z,18.20
2023-01-25T12:32:41.591Z,19.50
2023-01-25T12:35:17.680Z,20.50
2023-01-25T12:37:46.561Z,21.20
2023-01-25T12:40:21.610Z,21.90
2023-01-25T12:42:56.742Z,22.20
2023-01-25T12:45:28.025Z,22.10
2023-01-25T12:48:05.546Z,21.40
2023-01-25T12:50:56.691Z,21.20
2023-01-25T12:53:52.262Z,20.30
2023-01-25T12:56:48.009Z,18.40
2023-01-25T12:59:42.411Z,16.90
2023-01-25T13:02:41.647Z,16.80
2023-01-25T13:05:27.565Z,17.90
2023-01-25T13:08:03.361Z,18.80
2023-01-25T13:10:36.826Z,19.80
2023-01-25T13:13:21.973Z,20.70
2023-01-25T13:15:49.092Z,21.40
2023-01-25T13:18:24.841Z,21.50
2023-01-25T13:20:54.334Z,21.70
2023-01-25T13:23:36.347Z,21.90
2023-01-25T13:26:22.491Z,22.30
2023-01-25T13:28:50.354Z,22.60
2023-01-25T13:31:55.884Z,22.90
2023-01-25T13:34:39.919Z,22.80
2023-01-25T13:37:20.246Z,22.40
2023-01-25T13:39:51.121Z,22.50
2023-01-25T13:42:24.184Z,22.90
2023-01-25T13:45:01.913Z,23.00
2023-01-25T13:47:40.143Z,22.90
2023-01-25T13:50:27.026Z,22.30
2023-01-25T13:53:04.471Z,20.70
2023-01-25T13:55:44.001Z,19.00
2023-01-25T13:58:27.420Z,17.60
2023-01-25T14:01:06.627Z,16.60
2023-01-25T14:03:43.237Z,15.90
2023-01-25T14:06:25.449Z,15.40
2023-01-25T14:08:54.477Z,15.50
2023-01-25T14:11:24.377Z,16.50
2023-01-25T14:14:00.507Z,17.10
2023-01-25T14:16:30.142Z,16.90
2023-01-25T14:19:18.827Z,16.00
2023-01-25T14:21:45.815Z,15.30
2023-01-25T14:24:19.162Z,14.40
2023-01-25T14:26:47.616Z,14.00
2023-01-25T14:29:35.402Z,13.80
2023-01-25T14:32:03.200Z,13.80
2023-01-25T14:34:30.363Z,13.70
2023-01-25T14:37:20.916Z,13.50
2023-01-25T14:39:50.761Z,13.20
2023-01-25T14:42:18.525Z,12.90
2023-01-25T14:44:46.204Z,12.70
2023-01-25T14:47:29.783Z,12.50
2023-01-25T14:50:31.543Z,12.30
2023-01-25T14:53:00.530Z,12.10
2023-01-25T14:55:27.608Z,11.90
2023-01-25T14:58:00.768Z,11.80
2023-01-25T15:00:32.168Z,11.80
2023-01-25T15:03:02.267Z,11.80
2023-01-25T15:05:37.335Z,11.70
2023-01-25T15:08:07.298Z,11.60
2023-01-25T15:10:38.802Z,11.50
2023-01-25T15:13:22.993Z,11.40
2023-01-25T15:16:01.103Z,11.40
2023-01-25T15:18:43.220Z,11.40
2023-01-25T15:21:27.732Z,11.30
2023-01-25T15:23:56.605Z,11.10
2023-01-25T15:26:31.747Z,11.00
2023-01-25T15:29:14.215Z,10.90
2023-01-25T15:31:42.067Z,10.80
2023-01-25T15:34:29.298Z,10.60
2023-01-25T15:36:56.427Z,10.60
2023-01-25T15:39:23.444Z,10.50
2023-01-25T15:41:50.579Z,10.40
2023-01-25T15:44:20.101Z,10.30
2023-01-25T15:46:50.392Z,10.20
2023-01-25T15:49:26.984Z,10.10
2023-01-25T15:51:55.033Z,10.00
2023-01-25T15:54:22.433Z,9.90
2023-01-25T15:56:54.801Z,9.90
2023-01-25T15:59:21.912Z,9.90
2023-01-25T16:01:49.112Z,9.80
2023-01-25T16:04:16.257Z,9.80
2023-01-25T16:06:45.951Z,9.70
2023-01-25T16:09:19.130Z,9.70
2023-01-25T16:11:48.412Z,9.70
2023-01-25T16:14:15.335Z,9.60
2023-01-25T16:16:50.450Z,9.60
2023-01-25T16:19:20.781Z,9.60
2023-01-25T16:21:49.228Z,9.50
2023-01-25T16:24:16.219Z,9.50
2023-01-25T16:26:53.968Z,9.50
2023-01-25T16:29:23.031Z,9.50
2023-01-25T16:31:50.888Z,9.50
2023-01-25T16:34:17.934Z,9.40
2023-01-25T16:36:50.311Z,9.40
2023-01-25T16:39:20.183Z,9.40
2023-01-25T16:41:48.061Z,9.40
2023-01-25T16:44:15.427Z,9.40
2023-01-25T16:46:42.765Z,9.40
2023-01-25T16:49:17.125Z,9.40
2023-01-25T16:51:45.528Z,9.40
2023-01-25T16:54:12.773Z,9.40
2023-01-25T16:56:40.044Z,9.40
2023-01-25T16:59:09.366Z,9.30
2023-01-25T17:01:38.570Z,9.30
2023-01-25T17:04:05.723Z,9.30
2023-01-25T17:06:35.943Z,9.20
2023-01-25T17:09:20.506Z,9.20
2023-01-25T17:11:49.717Z,9.20
2023-01-25T17:14:19.103Z,9.10
2023-01-25T17:16:48.312Z,9.10
2023-01-25T17:19:17.111Z,9.10
2023-01-25T17:21:45.093Z,9.00
2023-01-25T17:24:15.287Z,9.00
2023-01-25T17:26:43.312Z,9.00
2023-01-25T17:29:10.497Z,8.90
2023-01-25T17:31:37.865Z,9.00
2023-01-25T17:34:07.467Z,8.90
2023-01-25T17:36:34.748Z,8.90
2023-01-25T17:39:07.000Z,8.90
2023-01-25T17:41:34.362Z,8.90
2023-01-25T17:44:01.603Z,8.80
2023-01-25T17:46:33.200Z,8.90
2023-01-25T17:49:02.265Z,8.80
2023-01-25T17:51:31.049Z,8.80
2023-01-25T17:53:58.610Z,8.70
2023-01-25T17:56:26.290Z,8.70
2023-01-25T17:58:53.536Z,8.60
2023-01-25T18:01:23.374Z,8.60
2023-01-25T18:03:52.519Z,8.50
2023-01-25T18:06:21.462Z,8.50
2023-01-25T18:08:50.712Z,8.50
2023-01-25T18:11:20.515Z,8.40
2023-01-25T18:13:59.178Z,8.40
2023-01-25T18:16:28.436Z,8.30
2023-01-25T18:19:00.192Z,8.30
2023-01-25T18:21:29.942Z,8.20
2023-01-25T18:23:59.948Z,8.20
2023-01-25T18:26:33.566Z,8.20
2023-01-25T18:29:09.815Z,8.20
2023-01-25T18:31:37.257Z,8.20
2023-01-25T18:34:04.734Z,8.10
2023-01-25T18:36:31.878Z,8.10
2023-01-25T18:39:00.330Z,8.10
2023-01-25T18:41:27.383Z,8.00
2023-01-25T18:43:54.488Z,8.00
2023-01-25T18:46:21.632Z,7.90
2023-01-25T18:48:48.589Z,7.90
2023-01-25T18:51:20.022Z,7.80
2023-01-25T18:53:51.103Z,7.80
2023-01-25T18:56:20.727Z,7.90
2023-01-25T18:58:48.393Z,7.90
2023-01-25T19:01:20.934Z,7.90
2023-01-25T19:03:49.252Z,7.90
2023-01-25T19:06:17.020Z,7.90
2023-01-25T19:08:49.617Z,7.90
2023-01-25T19:11:19.945Z,7.90
2023-01-25T19:13:47.459Z,7.90
2023-01-25T19:16:16.357Z,7.90
2023-01-25T19:18:47.961Z,7.90
2023-01-25T19:21:21.016Z,7.90
2023-01-25T19:23:48.411Z,7.90
2023-01-25T19:26:17.737Z,7.80
2023-01-25T19:28:45.925Z,7.90
2023-01-25T19:31:16.066Z,7.90
2023-01-25T19:33:44.211Z,7.90
2023-01-25T19:36:18.369Z,7.90
2023-01-25T19:38:47.343Z,7.90
2023-01-25T19:41:19.912Z,7.90
2023-01-25T19:43:47.267Z,7.90
2023-01-25T19:46:16.789Z,7.90
2023-01-25T19:48:45.141Z,7.90
2023-01-25T19:51:18.789Z,7.90
2023-01-25T19:53:47.642Z,7.90
2023-01-25T19:56:17.287Z,7.80
2023-01-25T19:58:49.671Z,7.80
2023-01-25T20:01:23.641Z,7.80
2023-01-25T20:03:51.252Z,7.70
2023-01-25T20:06:20.111Z,7.70
2023-01-25T20:08:48.272Z,7.70
2023-01-25T20:11:24.942Z,7.60
2023-01-25T20:13:54.513Z,7.70
2023-01-25T20:16:22.457Z,7.60
2023-01-25T20:18:49.899Z,7.50
2023-01-25T20:21:19.915Z,7.50
2023-01-25T20:23:49.302Z,7.40
2023-01-25T20:26:21.890Z,7.40
2023-01-25T20:28:52.007Z,7.30
2023-01-25T20:31:23.858Z,7.20
2023-01-25T20:33:52.938Z,7.10
2023-01-25T20:36:20.157Z,7.10
2023-01-25T20:38:47.372Z,7.00
2023-01-25T20:41:16.172Z,6.90
2023-01-25T20:43:54.419Z,6.80
2023-01-25T20:46:22.209Z,6.70
2023-01-25T20:48:49.768Z,6.60
2023-01-25T20:51:17.185Z,6.50
2023-01-25T20:53:45.708Z,6.40
2023-01-25T20:56:13.939Z,6.20
2023-01-25T20:58:41.915Z,6.10
2023-01-25T21:01:28.335Z,6.00
2023-01-25T21:03:56.964Z,5.90
2023-01-25T21:06:27.711Z,5.80
2023-01-25T21:08:54.718Z,5.80
2023-01-25T21:11:23.226Z,5.70
2023-01-25T21:13:50.175Z,5.60
2023-01-25T21:16:21.761Z,5.60
2023-01-25T21:18:55.142Z,5.50
2023-01-25T21:21:29.982Z,5.50
2023-01-25T21:24:00.237Z,5.40
2023-01-25T21:26:30.147Z,5.40
2023-01-25T21:28:59.353Z,5.30
2023-01-25T21:31:29.607Z,5.30
2023-01-25T21:33:57.113Z,5.20
2023-01-25T21:36:24.560Z,5.20
2023-01-25T21:38:53.049Z,5.10
2023-01-25T21:41:24.526Z,5.00
2023-01-25T21:44:12.038Z,5.00
2023-01-25T21:46:39.389Z,5.00
2023-01-25T21:49:28.051Z,5.00
2023-01-25T21:51:58.196Z,5.00
2023-01-25T21:54:30.959Z,5.00
2023-01-25T21:57:00.041Z,5.00
2023-01-25T21:59:29.182Z,5.00
2023-01-25T22:01:56.443Z,5.00
2023-01-25T22:04:24.832Z,5.00
2023-01-25T22:06:54.863Z,5.00
2023-01-25T22:09:22.823Z,5.00
2023-01-25T22:11:50.986Z,5.10
2023-01-25T22:14:19.459Z,5.10
2023-01-25T22:16:46.700Z,5.20
2023-01-25T22:19:13.772Z,5.30
2023-01-25T22:21:40.847Z,5.40
2023-01-25T22:24:10.057Z,5.50
2023-01-25T22:27:06.810Z,5.50
2023-01-25T22:29:34.220Z,5.70
2023-01-25T22:32:02.288Z,5.70
2023-01-25T22:34:29.442Z,5.80
2023-01-25T22:36:56.396Z,5.80
2023-01-25T22:39:23.335Z,5.90
2023-01-25T22:41:50.359Z,5.90
2023-01-25T22:44:17.545Z,5.90
2023-01-25T22:46:44.695Z,6.00
2023-01-25T22:49:11.703Z,6.00
2023-01-25T22:51:38.673Z,6.10
2023-01-25T22:54:05.700Z,6.10
2023-01-25T22:56:33.896Z,6.20
2023-01-25T22:59:01.633Z,6.20
2023-01-25T23:01:33.896Z,6.30
2023-01-25T23:04:01.935Z,6.30
2023-01-25T23:06:34.429Z,6.30
2023-01-25T23:09:04.699Z,6.30
2023-01-25T23:11:37.046Z,6.30
2023-01-25T23:14:25.397Z,6.40
2023-01-25T23:16:52.524Z,6.40
2023-01-25T23:19:19.806Z,6.40
2023-01-25T23:21:46.762Z,6.50
2023-01-25T23:24:13.782Z,6.40
2023-01-25T23:26:46.474Z,6.40
2023-01-25T23:29:14.467Z,6.40
2023-01-25T23:31:42.089Z,6.40
2023-01-25T23:34:11.269Z,6.40
2023-01-25T23:36:44.167Z,6.50
2023-01-25T23:39:13.140Z,6.50
2023-01-25T23:41:40.575Z,6.50
2023-01-25T23:44:09.163Z,6.50
2023-01-25T23:46:36.836Z,6.50
2023-01-25T23:49:04.980Z,6.50
2023-01-25T23:51:32.252Z,6.50
2023-01-25T23:53:59.266Z,6.50
2023-01-25T23:56:26.201Z,6.50
2023-01-25T23:58:53.315Z,6.40
